createdAt,value
2017-08-04T00:00:33.544Z,2.30
2017-08-04T00:03:03.165Z,2.80
2017-08-04T00:05:31.522Z,2.80
2017-08-04T00:07:59.852Z,2.37
2017-08-04T00:10:28.270Z,3.17
2017-08-04T00:12:56.575Z,2.17
2017-08-04T00:15:24.933Z,2.67
2017-08-04T00:17:53.229Z,2.93
2017-08-04T00:20:22.797Z,2.47
2017-08-04T00:22:51.178Z,2.50
2017-08-04T00:25:19.475Z,2.40
2017-08-04T00:27:47.810Z,2.27
2017-08-04T00:30:16.109Z,2.93
2017-08-04T00:32:44.699Z,2.23
2017-08-04T00:35:13.167Z,2.80
2017-08-04T00:37:41.502Z,2.13
2017-08-04T00:40:09.974Z,2.90
2017-08-04T00:42:41.312Z,1.90
2017-08-04T00:45:09.718Z,2.00
2017-08-04T00:47:38.085Z,2.03
2017-08-04T00:50:06.413Z,2.20
2017-08-04T00:52:34.778Z,1.53
2017-08-04T00:55:03.156Z,2.20
2017-08-04T00:57:31.505Z,2.10
2017-08-04T00:59:59.972Z,2.30
2017-08-04T01:02:28.330Z,1.93
2017-08-04T01:04:56.686Z,2.17
2017-08-04T01:07:25.029Z,2.00
2017-08-04T01:09:53.458Z,2.70
2017-08-04T01:12:21.874Z,2.77
2017-08-04T01:14:50.264Z,2.57
2017-08-04T01:17:18.686Z,2.83
2017-08-04T01:19:47.121Z,2.53
2017-08-04T01:22:15.456Z,1.80
2017-08-04T01:24:43.774Z,2.37
2017-08-04T01:27:12.156Z,2.17
2017-08-04T01:29:40.488Z,3.50
2017-08-04T01:32:09.070Z,2.20
2017-08-04T01:34:37.584Z,2.00
2017-08-04T01:37:06.031Z,1.80
2017-08-04T01:39:34.402Z,2.17
2017-08-04T01:42:02.852Z,2.33
2017-08-04T01:44:31.188Z,2.27
2017-08-04T01:47:00.904Z,2.47
2017-08-04T01:49:29.395Z,2.00
2017-08-04T01:51:57.744Z,2.60
2017-08-04T01:54:26.914Z,2.33
2017-08-04T01:56:55.215Z,3.53
2017-08-04T01:59:23.583Z,2.77
2017-08-04T02:01:51.927Z,3.40
2017-08-04T02:04:20.220Z,2.13
2017-08-04T02:06:48.613Z,2.53
2017-08-04T02:09:16.903Z,1.60
2017-08-04T02:11:45.287Z,1.90
2017-08-04T02:14:13.620Z,2.40
2017-08-04T02:16:41.957Z,2.57
2017-08-04T02:19:10.419Z,2.07
2017-08-04T02:21:38.877Z,2.30
2017-08-04T02:24:07.223Z,2.27
2017-08-04T02:26:35.587Z,2.37
2017-08-04T02:29:04.707Z,2.73
2017-08-04T02:31:33.043Z,2.33
2017-08-04T02:34:01.348Z,2.60
2017-08-04T02:36:29.748Z,2.90
2017-08-04T02:38:58.067Z,2.77
2017-08-04T02:41:26.411Z,2.40
2017-08-04T02:43:54.757Z,1.70
2017-08-04T02:46:23.039Z,2.00
2017-08-04T02:48:51.373Z,3.07
2017-08-04T02:51:19.669Z,2.27
2017-08-04T02:53:48.100Z,2.20
2017-08-04T02:56:16.397Z,1.90
2017-08-04T02:58:44.699Z,2.70
2017-08-04T03:01:13.059Z,2.03
2017-08-04T03:03:41.424Z,2.30
2017-08-04T03:06:09.830Z,1.90
2017-08-04T03:08:38.192Z,2.23
2017-08-04T03:11:06.584Z,3.57
2017-08-04T03:13:34.873Z,3.03
2017-08-04T03:16:04.159Z,2.10
2017-08-04T03:18:32.509Z,2.50
2017-08-04T03:21:00.799Z,2.17
2017-08-04T03:23:29.156Z,2.53
2017-08-04T03:25:57.489Z,2.53
2017-08-04T03:28:25.870Z,2.77
2017-08-04T03:30:54.177Z,1.73
2017-08-04T03:33:22.519Z,2.60
2017-08-04T03:35:50.812Z,2.60
2017-08-04T03:38:19.152Z,2.03
2017-08-04T03:40:47.492Z,2.17
2017-08-04T03:43:15.806Z,2.43
2017-08-04T03:45:44.164Z,2.40
2017-08-04T03:48:12.512Z,2.20
2017-08-04T03:50:40.874Z,2.10
2017-08-04T03:53:09.263Z,2.00
2017-08-04T03:55:37.675Z,1.90
2017-08-04T03:58:06.024Z,2.17
2017-08-04T04:00:34.432Z,2.53
2017-08-04T04:03:02.764Z,2.77
2017-08-04T04:05:32.384Z,2.53
2017-08-04T04:08:00.723Z,2.00
2017-08-04T04:10:29.938Z,2.37
2017-08-04T04:12:58.260Z,2.13
2017-08-04T04:15:26.559Z,2.50
2017-08-04T04:17:54.903Z,2.13
2017-08-04T04:20:23.244Z,2.27
2017-08-04T04:22:51.585Z,3.03
2017-08-04T04:25:19.934Z,2.63
2017-08-04T04:27:48.275Z,2.80
2017-08-04T04:30:17.023Z,2.40
2017-08-04T04:32:45.379Z,2.23
2017-08-04T04:35:13.893Z,2.37
2017-08-04T04:37:42.220Z,2.50
2017-08-04T04:40:11.368Z,3.00
2017-08-04T04:42:39.687Z,2.53
2017-08-04T04:45:08.279Z,2.87
2017-08-04T04:47:36.585Z,3.20
2017-08-04T04:50:04.881Z,3.03
2017-08-04T04:52:34.812Z,2.93
2017-08-04T04:55:04.038Z,3.20
2017-08-04T04:57:33.091Z,2.40
2017-08-04T05:00:01.425Z,2.37
2017-08-04T05:02:30.188Z,2.93
2017-08-04T05:04:58.504Z,3.00
2017-08-04T05:07:27.628Z,3.07
2017-08-04T05:09:56.766Z,3.37
2017-08-04T05:12:25.076Z,3.70
2017-08-04T05:14:53.440Z,3.53
2017-08-04T05:17:21.728Z,3.20
2017-08-04T05:19:50.070Z,3.30
2017-08-04T05:22:18.360Z,3.20
2017-08-04T05:24:46.703Z,3.87
2017-08-04T05:27:15.001Z,3.00
2017-08-04T05:29:43.355Z,3.37
2017-08-04T05:32:12.434Z,2.97
2017-08-04T05:34:40.828Z,3.07
2017-08-04T05:37:10.020Z,3.27
2017-08-04T05:39:38.412Z,2.37
2017-08-04T05:42:06.772Z,3.00
2017-08-04T05:44:35.128Z,3.37
2017-08-04T05:47:04.244Z,5.50
2017-08-04T05:49:33.308Z,3.67
2017-08-04T05:52:01.608Z,3.10
2017-08-04T05:54:29.974Z,3.63
2017-08-04T05:56:58.269Z,2.67
2017-08-04T05:59:26.625Z,2.90
2017-08-04T06:01:54.918Z,2.70
2017-08-04T06:04:23.218Z,3.13
2017-08-04T06:06:53.252Z,3.00
2017-08-04T06:09:21.756Z,2.60
2017-08-04T06:11:50.060Z,3.70
2017-08-04T06:14:18.359Z,3.00
2017-08-04T06:16:46.701Z,2.80
2017-08-04T06:19:15.008Z,3.23
2017-08-04T06:21:43.361Z,2.20
2017-08-04T06:24:12.640Z,3.73
2017-08-04T06:26:40.967Z,2.90
2017-08-04T06:29:09.303Z,3.37
2017-08-04T06:31:37.605Z,3.50
2017-08-04T06:34:06.144Z,2.57
2017-08-04T06:36:34.573Z,3.87
2017-08-04T06:39:03.029Z,2.77
2017-08-04T06:41:32.128Z,2.50
2017-08-04T06:44:01.224Z,3.47
2017-08-04T06:46:29.560Z,2.93
2017-08-04T06:49:11.999Z,3.33
2017-08-04T06:51:52.145Z,2.50
2017-08-04T06:54:42.980Z,2.33
2017-08-04T06:57:11.322Z,5.50
2017-08-04T06:59:39.670Z,3.77
2017-08-04T07:02:08.139Z,2.07
2017-08-04T07:04:37.230Z,3.13
2017-08-04T07:07:05.571Z,2.97
2017-08-04T07:09:33.917Z,3.73
2017-08-04T07:12:06.584Z,3.80
2017-08-04T07:14:34.968Z,2.47
2017-08-04T07:17:03.305Z,2.90
2017-08-04T07:19:32.372Z,3.30
2017-08-04T07:22:00.744Z,3.10
2017-08-04T07:24:29.961Z,3.30
2017-08-04T07:26:58.529Z,4.00
2017-08-04T07:29:26.868Z,3.57
2017-08-04T07:31:55.168Z,3.30
2017-08-04T07:34:23.581Z,3.67
2017-08-04T07:36:51.882Z,2.90
2017-08-04T07:39:20.244Z,3.50
2017-08-04T07:41:48.539Z,4.37
2017-08-04T07:44:16.876Z,4.70
2017-08-04T07:46:45.167Z,3.53
2017-08-04T07:49:14.908Z,3.23
2017-08-04T07:51:43.208Z,3.83
2017-08-04T07:54:11.501Z,3.40
2017-08-04T07:56:39.852Z,3.93
2017-08-04T07:59:08.161Z,4.13
2017-08-04T08:01:36.515Z,3.90
2017-08-04T08:04:04.827Z,4.80
2017-08-04T08:06:33.204Z,7.80
2017-08-04T08:09:01.503Z,6.77
2017-08-04T08:11:29.809Z,6.60
2017-08-04T08:13:58.252Z,7.13
2017-08-04T08:16:26.547Z,6.07
2017-08-04T08:18:54.849Z,5.27
2017-08-04T08:21:23.352Z,5.97
2017-08-04T08:23:51.656Z,5.13
2017-08-04T08:26:19.999Z,5.30
2017-08-04T08:28:48.293Z,4.20
2017-08-04T08:31:16.588Z,5.60
2017-08-04T08:33:44.933Z,5.13
2017-08-04T08:36:13.263Z,4.00
2017-08-04T08:38:41.615Z,4.00
2017-08-04T08:41:10.497Z,3.93
2017-08-04T08:43:38.851Z,4.50
2017-08-04T08:46:07.152Z,3.97
2017-08-04T08:48:35.443Z,3.23
2017-08-04T08:51:03.817Z,2.60
2017-08-04T08:53:32.236Z,2.87
2017-08-04T08:56:00.661Z,2.50
2017-08-04T08:58:29.163Z,3.03
2017-08-04T09:00:57.671Z,2.67
2017-08-04T09:03:26.277Z,2.73
2017-08-04T09:05:55.013Z,3.10
2017-08-04T09:08:23.529Z,2.20
2017-08-04T09:10:52.108Z,2.13
2017-08-04T09:13:20.692Z,1.67
2017-08-04T09:15:49.993Z,1.57
2017-08-04T09:18:18.439Z,1.83
2017-08-04T09:20:47.361Z,1.67
2017-08-04T09:23:16.515Z,1.50
2017-08-04T09:25:45.475Z,1.83
2017-08-04T09:28:15.321Z,1.67
2017-08-04T09:30:43.964Z,2.20
2017-08-04T09:33:13.514Z,2.10
2017-08-04T09:35:41.980Z,2.13
2017-08-04T09:38:10.606Z,1.90
2017-08-04T09:40:39.113Z,1.50
2017-08-04T09:43:07.744Z,1.60
2017-08-04T09:45:36.129Z,1.83
2017-08-04T09:48:04.449Z,1.83
2017-08-04T09:50:32.779Z,1.70
2017-08-04T09:53:01.112Z,1.30
2017-08-04T09:55:29.455Z,1.47
2017-08-04T09:57:57.908Z,1.87
2017-08-04T10:00:26.333Z,1.97
2017-08-04T10:02:55.322Z,1.67
2017-08-04T10:05:23.709Z,1.50
2017-08-04T10:07:52.148Z,1.60
2017-08-04T10:10:20.884Z,1.40
2017-08-04T10:12:49.182Z,1.50
2017-08-04T10:15:17.507Z,1.50
2017-08-04T10:17:45.860Z,2.00
2017-08-04T10:20:14.213Z,1.80
2017-08-04T10:22:42.509Z,1.97
2017-08-04T10:25:10.855Z,1.30
2017-08-04T10:27:39.344Z,2.70
2017-08-04T10:30:07.635Z,1.40
2017-08-04T10:32:35.941Z,1.40
2017-08-04T10:35:04.304Z,1.93
2017-08-04T10:37:32.747Z,1.43
2017-08-04T10:40:01.035Z,2.10
2017-08-04T10:42:29.787Z,1.90
2017-08-04T10:44:58.224Z,1.37
2017-08-04T10:47:27.541Z,1.67
2017-08-04T10:49:55.915Z,1.57
2017-08-04T10:52:24.267Z,1.47
2017-08-04T10:54:52.596Z,1.60
2017-08-04T10:57:20.944Z,1.40
2017-08-04T10:59:49.236Z,1.30
2017-08-04T11:02:17.582Z,1.43
2017-08-04T11:04:45.892Z,1.47
2017-08-04T11:07:14.254Z,1.50
2017-08-04T11:09:43.516Z,1.83
2017-08-04T11:12:11.823Z,2.07
2017-08-04T11:14:40.222Z,1.53
2017-08-04T11:17:11.483Z,1.67
2017-08-04T11:19:39.926Z,1.37
2017-08-04T11:22:08.259Z,1.30
2017-08-04T11:24:36.591Z,1.60
2017-08-04T11:27:04.996Z,1.73
2017-08-04T11:29:33.300Z,1.50
2017-08-04T11:32:01.644Z,1.33
2017-08-04T11:34:29.962Z,1.33
2017-08-04T11:36:58.252Z,1.43
2017-08-04T11:39:26.634Z,1.60
2017-08-04T11:41:55.011Z,1.33
2017-08-04T11:44:23.848Z,1.30
2017-08-04T11:46:52.160Z,1.50
2017-08-04T11:49:20.541Z,1.00
2017-08-04T11:51:49.000Z,1.00
2017-08-04T11:54:17.333Z,1.10
2017-08-04T11:56:45.621Z,1.00
2017-08-04T11:59:13.990Z,1.30
2017-08-04T12:01:42.304Z,0.90
2017-08-04T12:04:10.840Z,1.73
2017-08-04T12:06:39.239Z,1.03
2017-08-04T12:09:07.724Z,1.07
2017-08-04T12:11:36.257Z,1.33
2017-08-04T12:14:04.658Z,1.40
2017-08-04T12:16:33.020Z,1.10
2017-08-04T12:19:01.369Z,1.60
2017-08-04T12:21:29.988Z,1.17
2017-08-04T12:23:58.295Z,1.30
2017-08-04T12:26:26.836Z,1.33
2017-08-04T12:28:55.228Z,1.13
2017-08-04T12:31:23.560Z,1.00
2017-08-04T12:33:52.030Z,1.07
2017-08-04T12:36:20.344Z,1.27
2017-08-04T12:38:48.657Z,1.60
2017-08-04T12:41:17.007Z,1.10
2017-08-04T12:43:45.368Z,0.97
2017-08-04T12:46:13.756Z,1.47
2017-08-04T12:48:42.187Z,1.13
2017-08-04T12:51:10.549Z,1.20
2017-08-04T12:53:38.944Z,1.43
2017-08-04T12:56:07.393Z,2.03
2017-08-04T12:58:35.835Z,1.10
2017-08-04T13:01:04.208Z,1.20
2017-08-04T13:03:32.564Z,1.80
2017-08-04T13:06:01.062Z,1.23
2017-08-04T13:08:29.421Z,1.20
2017-08-04T13:10:57.729Z,1.40
2017-08-04T13:13:26.135Z,1.40
2017-08-04T13:15:54.516Z,1.47
2017-08-04T13:18:22.820Z,1.73
2017-08-04T13:20:51.198Z,1.60
2017-08-04T13:23:19.558Z,1.87
2017-08-04T13:25:47.896Z,1.70
2017-08-04T13:28:16.257Z,1.70
2017-08-04T13:30:44.760Z,1.60
2017-08-04T13:33:13.317Z,2.20
2017-08-04T13:35:41.820Z,1.60
2017-08-04T13:38:15.904Z,1.13
2017-08-04T13:40:44.259Z,1.37
2017-08-04T13:43:12.655Z,1.60
2017-08-04T13:45:41.000Z,1.30
2017-08-04T13:48:09.510Z,1.40
2017-08-04T13:50:37.881Z,1.30
2017-08-04T13:53:06.355Z,1.43
2017-08-04T13:55:34.788Z,1.30
2017-08-04T13:58:03.225Z,2.10
2017-08-04T14:00:31.689Z,1.30
2017-08-04T14:03:00.035Z,1.77
2017-08-04T14:05:28.337Z,1.33
2017-08-04T14:07:56.833Z,1.60
2017-08-04T14:10:25.214Z,1.33
2017-08-04T14:12:53.548Z,1.57
2017-08-04T14:15:21.896Z,1.30
2017-08-04T14:17:50.248Z,1.10
2017-08-04T14:20:18.604Z,1.50
2017-08-04T14:22:47.069Z,1.30
2017-08-04T14:25:15.418Z,1.60
2017-08-04T14:27:43.851Z,1.40
2017-08-04T14:30:14.468Z,1.40
2017-08-04T14:32:42.858Z,1.83
2017-08-04T14:35:11.156Z,1.60
2017-08-04T14:37:40.503Z,1.63
2017-08-04T14:40:08.823Z,1.40
2017-08-04T14:42:39.313Z,1.60
2017-08-04T14:45:07.896Z,1.50
2017-08-04T14:47:37.004Z,1.83
2017-08-04T14:50:09.344Z,2.10
2017-08-04T14:52:37.689Z,1.67
2017-08-04T14:55:06.012Z,1.57
2017-08-04T14:57:34.408Z,1.90
2017-08-04T15:00:03.952Z,1.60
2017-08-04T15:02:32.377Z,1.40
2017-08-04T15:05:00.809Z,1.60
2017-08-04T15:07:29.165Z,1.60
2017-08-04T15:10:00.184Z,1.30
2017-08-04T15:12:28.561Z,1.10
2017-08-04T15:14:57.017Z,1.40
2017-08-04T15:17:26.591Z,1.13
2017-08-04T15:19:55.532Z,1.37
2017-08-04T15:22:24.157Z,1.60
2017-08-04T15:24:52.483Z,1.73
2017-08-04T15:27:20.896Z,1.40
2017-08-04T15:29:49.232Z,1.40
2017-08-04T15:32:17.820Z,1.30
2017-08-04T15:34:46.208Z,2.30
2017-08-04T15:37:14.500Z,1.40
2017-08-04T15:39:42.924Z,1.37
2017-08-04T15:42:11.221Z,1.20
2017-08-04T15:44:39.551Z,1.67
2017-08-04T15:47:07.900Z,1.87
2017-08-04T15:49:36.240Z,1.63
2017-08-04T15:52:04.596Z,1.40
2017-08-04T15:54:32.883Z,1.50
2017-08-04T15:57:01.247Z,1.40
2017-08-04T15:59:30.887Z,1.47
2017-08-04T16:01:59.241Z,1.10
2017-08-04T16:04:27.631Z,1.20
2017-08-04T16:06:55.949Z,1.20
2017-08-04T16:09:24.314Z,1.80
2017-08-04T16:11:52.640Z,1.20
2017-08-04T16:14:20.928Z,1.10
2017-08-04T16:16:49.260Z,1.27
2017-08-04T16:19:17.556Z,1.20
2017-08-04T16:21:45.900Z,1.80
2017-08-04T16:24:14.220Z,1.30
2017-08-04T16:26:42.560Z,1.80
2017-08-04T16:29:10.872Z,1.33
2017-08-04T16:31:39.308Z,1.40
2017-08-04T16:34:07.601Z,1.37
2017-08-04T16:36:35.929Z,1.53
2017-08-04T16:39:04.308Z,2.07
2017-08-04T16:41:32.596Z,2.37
2017-08-04T16:44:00.955Z,1.33
2017-08-04T16:46:29.265Z,1.10
2017-08-04T16:48:57.584Z,1.40
2017-08-04T16:51:25.987Z,1.27
2017-08-04T16:53:54.272Z,1.20
2017-08-04T16:56:22.637Z,1.30
2017-08-04T16:58:50.927Z,1.57
2017-08-04T17:01:19.211Z,1.53
2017-08-04T17:03:47.615Z,1.20
2017-08-04T17:06:15.898Z,1.70
2017-08-04T17:08:44.243Z,1.23
2017-08-04T17:11:12.581Z,1.83
2017-08-04T17:13:40.867Z,1.40
2017-08-04T17:16:09.208Z,1.60
2017-08-04T17:18:37.504Z,1.50
2017-08-04T17:21:05.802Z,1.90
2017-08-04T17:23:34.597Z,1.63
2017-08-04T17:26:02.884Z,1.60
2017-08-04T17:28:32.625Z,1.70
2017-08-04T17:31:00.927Z,1.70
2017-08-04T17:33:29.272Z,1.80
2017-08-04T17:35:57.620Z,1.90
2017-08-04T17:38:25.972Z,1.90
2017-08-04T17:40:54.273Z,1.57
2017-08-04T17:43:22.632Z,1.73
2017-08-04T17:45:50.924Z,1.70
2017-08-04T17:48:19.212Z,1.73
2017-08-04T17:50:47.548Z,1.93
2017-08-04T17:53:15.853Z,2.23
2017-08-04T17:55:44.199Z,1.80
2017-08-04T17:58:24.244Z,2.00
2017-08-04T18:00:52.539Z,2.20
2017-08-04T18:03:20.880Z,2.23
2017-08-04T18:05:49.182Z,2.17
2017-08-04T18:08:17.468Z,2.80
2017-08-04T18:10:45.803Z,3.20
2017-08-04T18:13:14.118Z,2.30
2017-08-04T18:15:42.464Z,2.20
2017-08-04T18:18:10.919Z,2.47
2017-08-04T18:20:39.216Z,2.47
2017-08-04T18:23:07.576Z,2.00
2017-08-04T18:25:36.660Z,2.43
2017-08-04T18:28:05.141Z,1.83
2017-08-04T18:30:33.449Z,2.00
2017-08-04T18:33:01.753Z,2.00
2017-08-04T18:35:30.093Z,2.13
2017-08-04T18:37:58.428Z,2.23
2017-08-04T18:40:28.117Z,2.60
2017-08-04T18:42:56.415Z,2.03
2017-08-04T18:45:24.861Z,1.77
2017-08-04T18:47:53.143Z,2.00
2017-08-04T18:50:22.592Z,2.30
2017-08-04T18:52:50.923Z,1.73
2017-08-04T18:55:20.970Z,2.27
2017-08-04T18:57:49.345Z,1.77
2017-08-04T19:00:17.633Z,1.67
2017-08-04T19:02:45.993Z,2.10
2017-08-04T19:05:14.292Z,2.97
2017-08-04T19:07:43.201Z,2.17
2017-08-04T19:10:11.649Z,1.87
2017-08-04T19:12:39.952Z,2.53
2017-08-04T19:15:08.249Z,2.27
2017-08-04T19:17:36.585Z,1.70
2017-08-04T19:20:04.882Z,2.20
2017-08-04T19:22:33.220Z,2.50
2017-08-04T19:25:01.564Z,1.33
2017-08-04T19:27:29.980Z,1.97
2017-08-04T19:29:58.332Z,2.10
2017-08-04T19:32:26.642Z,1.70
2017-08-04T19:34:55.237Z,2.03
2017-08-04T19:37:24.035Z,1.70
2017-08-04T19:39:52.647Z,1.93
2017-08-04T19:42:21.544Z,2.13
2017-08-04T19:44:49.903Z,1.57
2017-08-04T19:47:18.251Z,1.80
2017-08-04T19:49:46.592Z,1.97
2017-08-04T19:52:14.933Z,1.70
2017-08-04T19:54:43.225Z,2.00
2017-08-04T19:57:11.530Z,2.20
2017-08-04T19:59:39.864Z,1.90
2017-08-04T20:02:08.152Z,1.87
2017-08-04T20:04:36.493Z,2.00
2017-08-04T20:07:06.580Z,2.30
2017-08-04T20:09:35.080Z,2.03
2017-08-04T20:12:03.373Z,1.83
2017-08-04T20:14:31.681Z,1.80
2017-08-04T20:17:00.026Z,2.53
2017-08-04T20:19:28.331Z,2.17
2017-08-04T20:21:56.635Z,1.97
2017-08-04T20:24:24.985Z,2.50
2017-08-04T20:26:53.329Z,2.07
2017-08-04T20:29:21.670Z,2.20
2017-08-04T20:31:49.960Z,2.77
2017-08-04T20:34:18.309Z,2.33
2017-08-04T20:36:46.606Z,2.03
2017-08-04T20:39:14.953Z,2.20
2017-08-04T20:41:43.428Z,2.30
2017-08-04T20:44:11.712Z,2.17
2017-08-04T20:46:40.000Z,2.00
2017-08-04T20:49:08.336Z,1.87
2017-08-04T20:51:37.396Z,2.03
2017-08-04T20:54:05.687Z,1.93
2017-08-04T20:56:34.042Z,2.20
2017-08-04T20:59:02.408Z,2.07
2017-08-04T21:01:30.737Z,2.00
2017-08-04T21:03:59.062Z,1.90
2017-08-04T21:06:27.422Z,2.13
2017-08-04T21:08:55.750Z,1.87
2017-08-04T21:11:24.980Z,2.53
2017-08-04T21:13:53.276Z,2.37
2017-08-04T21:16:21.612Z,2.20
2017-08-04T21:18:50.124Z,2.50
2017-08-04T21:21:18.417Z,1.83
2017-08-04T21:23:46.723Z,2.37
2017-08-04T21:26:15.928Z,2.00
2017-08-04T21:28:45.002Z,2.87
2017-08-04T21:31:13.347Z,2.00
2017-08-04T21:33:41.635Z,2.10
2017-08-04T21:36:09.936Z,2.27
2017-08-04T21:38:38.269Z,1.93
2017-08-04T21:41:06.555Z,2.27
2017-08-04T21:43:34.996Z,2.63
2017-08-04T21:46:03.304Z,2.30
2017-08-04T21:48:31.608Z,2.87
2017-08-04T21:50:59.957Z,2.20
2017-08-04T21:53:28.299Z,2.50
2017-08-04T21:55:57.495Z,2.53
2017-08-04T21:58:26.137Z,2.10
2017-08-04T22:00:54.448Z,1.80
2017-08-04T22:03:22.748Z,2.73
2017-08-04T22:05:51.085Z,2.13
2017-08-04T22:08:19.423Z,2.20
2017-08-04T22:10:47.798Z,2.73
2017-08-04T22:13:16.112Z,2.43
2017-08-04T22:15:44.672Z,2.50
2017-08-04T22:18:13.737Z,2.90
2017-08-04T22:20:42.067Z,2.47
2017-08-04T22:23:11.126Z,2.73
2017-08-04T22:25:40.572Z,2.60
2017-08-04T22:28:08.984Z,3.00
2017-08-04T22:30:38.049Z,3.00
2017-08-04T22:33:06.400Z,5.00
2017-08-04T22:35:34.733Z,2.63
2017-08-04T22:38:03.026Z,3.10
2017-08-04T22:40:31.345Z,2.97
2017-08-04T22:43:00.604Z,3.00
2017-08-04T22:45:29.031Z,2.90
2017-08-04T22:47:58.128Z,2.60
2017-08-04T22:50:26.565Z,3.10
2017-08-04T22:52:54.858Z,2.53
2017-08-04T22:55:23.952Z,2.67
2017-08-04T22:57:53.108Z,2.80
2017-08-04T23:00:21.451Z,2.70
2017-08-04T23:02:50.536Z,2.50
2017-08-04T23:05:18.937Z,2.87
2017-08-04T23:07:47.737Z,3.63
2017-08-04T23:10:16.207Z,2.40
2017-08-04T23:12:44.508Z,2.50
2017-08-04T23:15:12.809Z,2.37
2017-08-04T23:17:41.312Z,3.50
2017-08-04T23:20:10.433Z,3.10
2017-08-04T23:22:39.499Z,3.03
2017-08-04T23:25:07.843Z,2.40
2017-08-04T23:27:36.147Z,2.27
2017-08-04T23:30:04.442Z,3.40
2017-08-04T23:32:32.786Z,2.37
2017-08-04T23:35:01.917Z,2.40
2017-08-04T23:37:32.091Z,2.60
2017-08-04T23:40:00.408Z,2.50
2017-08-04T23:42:29.594Z,2.07
2017-08-04T23:44:57.924Z,2.10
2017-08-04T23:47:27.001Z,2.67
2017-08-04T23:49:55.349Z,2.53
2017-08-04T23:52:23.697Z,2.30
2017-08-04T23:54:52.036Z,2.70
2017-08-04T23:57:20.378Z,2.90
2017-08-04T23:59:48.752Z,2.20
